sensor_id;sensor_type;location;lat;lon;timestamp;P1;durP1;ratioP1;P2;durP2;ratioP2
3050;SDS011;1535;51.098;6.414;2024-01-15T00:01:08;27.77;;;26.37;;
3050;SDS011;1535;51.098;6.414;2024-01-15T00:03:35;26.40;;;25.10;;
3050;SDS011;1535;51.098;6.414;2024-01-15T00:06:03;27.50;;;26.20;;
3050;SDS011;1535;51.098;6.414;2024-01-15T00:08:30;26.03;;;24.83;;
3050;SDS011;1535;51.098;6.414;2024-01-15T00:10:57;26.90;;;25.70;;
3050;SDS011;1535;51.098;6.414;2024-01-15T00:13:23;26.03;;;24.83;;
3050;SDS011;1535;51.098;6.414;2024-01-15T00:15:50;25.60;;;24.50;;
3050;SDS011;1535;51.098;6.414;2024-01-15T00:18:17;26.13;;;24.93;;
3050;SDS011;1535;51.098;6.414;2024-01-15T00:20:44;26.40;;;25.20;;
3050;SDS011;1535;51.098;6.414;2024-01-15T00:23:12;26.37;;;25.20;;
3050;SDS011;1535;51.098;6.414;2024-01-15T00:25:40;25.37;;;24.27;;
3050;SDS011;1535;51.098;6.414;2024-01-15T00:28:07;25.00;;;23.90;;
3050;SDS011;1535;51.098;6.414;2024-01-15T00:30:34;26.33;;;25.23;;
3050;SDS011;1535;51.098;6.414;2024-01-15T00:33:01;26.10;;;25.00;;
3050;SDS011;1535;51.098;6.414;2024-01-15T00:35:28;25.50;;;24.40;;
3050;SDS011;1535;51.098;6.414;2024-01-15T00:37:56;25.00;;;24.00;;
3050;SDS011;1535;51.098;6.414;2024-01-15T00:40:24;25.13;;;24.13;;
3050;SDS011;1535;51.098;6.414;2024-01-15T00:42:51;25.93;;;24.83;;
3050;SDS011;1535;51.098;6.414;2024-01-15T00:45:19;25.80;;;24.70;;
3050;SDS011;1535;51.098;6.414;2024-01-15T00:47:46;26.33;;;25.23;;
3050;SDS011;1535;51.098;6.414;2024-01-15T00:50:13;27.10;;;25.90;;
3050;SDS011;1535;51.098;6.414;2024-01-15T00:52:40;27.77;;;26.57;;
3050;SDS011;1535;51.098;6.414;2024-01-15T00:55:07;27.57;;;26.37;;
3050;SDS011;1535;51.098;6.414;2024-01-15T00:57:36;28.70;;;27.40;;
3050;SDS011;1535;51.098;6.414;2024-01-15T01:00:03;28.30;;;27.00;;
3050;SDS011;1535;51.098;6.414;2024-01-15T01:02:31;27.63;;;26.40;;
3050;SDS011;1535;51.098;6.414;2024-01-15T01:04:59;27.00;;;25.80;;
3050;SDS011;1535;51.098;6.414;2024-01-15T01:07:25;25.70;;;24.60;;
3050;SDS011;1535;51.098;6.414;2024-01-15T01:09:52;26.57;;;25.37;;
3050;SDS011;1535;51.098;6.414;2024-01-15T01:12:19;25.10;;;24.00;;
3050;SDS011;1535;51.098;6.414;2024-01-15T01:14:47;25.13;;;24.03;;
3050;SDS011;1535;51.098;6.414;2024-01-15T01:17:14;26.23;;;25.03;;
3050;SDS011;1535;51.098;6.414;2024-01-15T01:19:41;25.90;;;24.80;;
3050;SDS011;1535;51.098;6.414;2024-01-15T01:22:08;26.70;;;25.50;;
3050;SDS011;1535;51.098;6.414;2024-01-15T01:24:35;28.07;;;26.77;;
3050;SDS011;1535;51.098;6.414;2024-01-15T01:27:02;27.77;;;26.47;;
3050;SDS011;1535;51.098;6.414;2024-01-15T01:29:29;28.17;;;26.80;;
3050;SDS011;1535;51.098;6.414;2024-01-15T01:31:58;29.73;;;28.23;;
3050;SDS011;1535;51.098;6.414;2024-01-15T01:34:25;28.03;;;26.63;;
3050;SDS011;1535;51.098;6.414;2024-01-15T01:36:51;28.10;;;26.70;;
3050;SDS011;1535;51.098;6.414;2024-01-15T01:39:18;27.20;;;25.90;;
3050;SDS011;1535;51.098;6.414;2024-01-15T01:41:45;27.10;;;25.80;;
3050;SDS011;1535;51.098;6.414;2024-01-15T01:44:12;27.80;;;26.43;;
3050;SDS011;1535;51.098;6.414;2024-01-15T01:46:39;26.97;;;25.67;;
3050;SDS011;1535;51.098;6.414;2024-01-15T01:49:08;26.30;;;25.10;;
3050;SDS011;1535;51.098;6.414;2024-01-15T01:51:36;28.30;;;27.00;;
3050;SDS011;1535;51.098;6.414;2024-01-15T01:54:04;27.53;;;26.23;;
3050;SDS011;1535;51.098;6.414;2024-01-15T01:56:33;27.60;;;26.30;;
3050;SDS011;1535;51.098;6.414;2024-01-15T01:59:00;24.93;;;23.83;;
3050;SDS011;1535;51.098;6.414;2024-01-15T02:01:28;25.30;;;24.20;;
3050;SDS011;1535;51.098;6.414;2024-01-15T02:03:55;24.80;;;23.70;;
3050;SDS011;1535;51.098;6.414;2024-01-15T02:06:24;25.20;;;24.10;;
3050;SDS011;1535;51.098;6.414;2024-01-15T02:08:50;24.70;;;23.60;;
3050;SDS011;1535;51.098;6.414;2024-01-15T02:11:18;23.63;;;22.60;;
3050;SDS011;1535;51.098;6.414;2024-01-15T02:13:45;25.07;;;23.97;;
3050;SDS011;1535;51.098;6.414;2024-01-15T02:16:12;25.40;;;24.20;;
3050;SDS011;1535;51.098;6.414;2024-01-15T02:18:40;25.80;;;24.60;;
3050;SDS011;1535;51.098;6.414;2024-01-15T02:21:07;26.27;;;25.07;;
3050;SDS011;1535;51.098;6.414;2024-01-15T02:23:36;26.40;;;25.30;;
3050;SDS011;1535;51.098;6.414;2024-01-15T02:26:03;25.47;;;24.37;;
3050;SDS011;1535;51.098;6.414;2024-01-15T02:28:31;25.00;;;24.00;;
3050;SDS011;1535;51.098;6.414;2024-01-15T02:30:59;24.57;;;23.57;;
3050;SDS011;1535;51.098;6.414;2024-01-15T02:33:26;23.47;;;22.53;;
3050;SDS011;1535;51.098;6.414;2024-01-15T02:35:52;22.63;;;21.73;;
3050;SDS011;1535;51.098;6.414;2024-01-15T02:38:19;23.10;;;22.10;;
3050;SDS011;1535;51.098;6.414;2024-01-15T02:40:47;22.60;;;21.63;;
3050;SDS011;1535;51.098;6.414;2024-01-15T02:43:15;22.23;;;21.33;;
3050;SDS011;1535;51.098;6.414;2024-01-15T02:45:44;21.80;;;20.90;;
3050;SDS011;1535;51.098;6.414;2024-01-15T02:48:12;21.20;;;20.40;;
3050;SDS011;1535;51.098;6.414;2024-01-15T02:50:39;20.60;;;19.80;;
3050;SDS011;1535;51.098;6.414;2024-01-15T02:53:06;20.90;;;20.00;;
3050;SDS011;1535;51.098;6.414;2024-01-15T02:55:33;21.70;;;20.80;;
3050;SDS011;1535;51.098;6.414;2024-01-15T02:58:01;22.33;;;21.40;;
3050;SDS011;1535;51.098;6.414;2024-01-15T03:00:28;22.77;;;21.77;;
3050;SDS011;1535;51.098;6.414;2024-01-15T03:02:55;21.83;;;20.93;;
3050;SDS011;1535;51.098;6.414;2024-01-15T03:05:22;21.83;;;20.93;;
3050;SDS011;1535;51.098;6.414;2024-01-15T03:07:49;21.53;;;20.63;;
3050;SDS011;1535;51.098;6.414;2024-01-15T03:10:16;22.17;;;21.20;;
3050;SDS011;1535;51.098;6.414;2024-01-15T03:12:43;21.10;;;20.20;;
3050;SDS011;1535;51.098;6.414;2024-01-15T03:15:11;20.80;;;19.90;;
3050;SDS011;1535;51.098;6.414;2024-01-15T03:17:38;20.40;;;19.60;;
3050;SDS011;1535;51.098;6.414;2024-01-15T03:20:07;20.30;;;19.50;;
3050;SDS011;1535;51.098;6.414;2024-01-15T03:22:34;20.40;;;19.60;;
3050;SDS011;1535;51.098;6.414;2024-01-15T03:25:01;21.10;;;20.20;;
3050;SDS011;1535;51.098;6.414;2024-01-15T03:27:28;21.40;;;20.50;;
3050;SDS011;1535;51.098;6.414;2024-01-15T03:29:55;21.23;;;20.33;;
3050;SDS011;1535;51.098;6.414;2024-01-15T03:32:23;21.07;;;20.17;;
3050;SDS011;1535;51.098;6.414;2024-01-15T03:34:50;20.83;;;19.93;;
3050;SDS011;1535;51.098;6.414;2024-01-15T03:37:17;20.80;;;19.90;;
3050;SDS011;1535;51.098;6.414;2024-01-15T03:39:44;22.00;;;21.00;;
3050;SDS011;1535;51.098;6.414;2024-01-15T03:42:11;21.57;;;20.67;;
3050;SDS011;1535;51.098;6.414;2024-01-15T03:44:39;21.20;;;20.30;;
3050;SDS011;1535;51.098;6.414;2024-01-15T03:47:06;20.87;;;19.97;;
3050;SDS011;1535;51.098;6.414;2024-01-15T03:49:34;21.27;;;20.37;;
3050;SDS011;1535;51.098;6.414;2024-01-15T03:52:01;21.10;;;20.20;;
3050;SDS011;1535;51.098;6.414;2024-01-15T03:54:28;21.30;;;20.40;;
3050;SDS011;1535;51.098;6.414;2024-01-15T03:56:55;21.50;;;20.60;;
3050;SDS011;1535;51.098;6.414;2024-01-15T03:59:21;20.67;;;19.77;;
3050;SDS011;1535;51.098;6.414;2024-01-15T04:01:48;21.07;;;20.17;;
3050;SDS011;1535;51.098;6.414;2024-01-15T04:04:16;21.60;;;20.70;;
3050;SDS011;1535;51.098;6.414;2024-01-15T04:06:45;21.10;;;20.20;;
3050;SDS011;1535;51.098;6.414;2024-01-15T04:09:12;20.20;;;19.40;;
3050;SDS011;1535;51.098;6.414;2024-01-15T04:11:39;21.10;;;20.20;;
3050;SDS011;1535;51.098;6.414;2024-01-15T04:14:06;19.67;;;18.87;;
3050;SDS011;1535;51.098;6.414;2024-01-15T04:16:33;19.80;;;19.00;;
3050;SDS011;1535;51.098;6.414;2024-01-15T04:19:00;19.33;;;18.53;;
3050;SDS011;1535;51.098;6.414;2024-01-15T04:21:27;20.30;;;19.40;;
3050;SDS011;1535;51.098;6.414;2024-01-15T04:23:55;19.97;;;19.17;;
3050;SDS011;1535;51.098;6.414;2024-01-15T04:26:22;19.40;;;18.60;;
3050;SDS011;1535;51.098;6.414;2024-01-15T04:28:49;19.27;;;18.47;;
3050;SDS011;1535;51.098;6.414;2024-01-15T04:31:23;19.90;;;19.10;;
3050;SDS011;1535;51.098;6.414;2024-01-15T04:33:51;19.97;;;19.17;;
3050;SDS011;1535;51.098;6.414;2024-01-15T04:36:18;20.30;;;19.40;;
3050;SDS011;1535;51.098;6.414;2024-01-15T04:38:45;20.90;;;20.00;;
3050;SDS011;1535;51.098;6.414;2024-01-15T04:41:14;19.83;;;19.03;;
3050;SDS011;1535;51.098;6.414;2024-01-15T04:43:41;19.70;;;18.90;;
3050;SDS011;1535;51.098;6.414;2024-01-15T04:46:08;19.83;;;19.03;;
3050;SDS011;1535;51.098;6.414;2024-01-15T04:48:35;18.70;;;18.00;;
3050;SDS011;1535;51.098;6.414;2024-01-15T04:51:03;19.40;;;18.60;;
3050;SDS011;1535;51.098;6.414;2024-01-15T04:53:31;18.73;;;17.93;;
3050;SDS011;1535;51.098;6.414;2024-01-15T04:55:59;19.07;;;18.27;;
3050;SDS011;1535;51.098;6.414;2024-01-15T04:58:27;19.60;;;18.80;;
3050;SDS011;1535;51.098;6.414;2024-01-15T05:00:54;21.60;;;20.60;;
3050;SDS011;1535;51.098;6.414;2024-01-15T05:03:21;20.80;;;19.83;;
3050;SDS011;1535;51.098;6.414;2024-01-15T05:05:48;21.60;;;20.60;;
3050;SDS011;1535;51.098;6.414;2024-01-15T05:08:15;20.57;;;19.67;;
3050;SDS011;1535;51.098;6.414;2024-01-15T05:10:42;21.07;;;20.07;;
3050;SDS011;1535;51.098;6.414;2024-01-15T05:13:10;21.37;;;20.37;;
3050;SDS011;1535;51.098;6.414;2024-01-15T05:15:38;21.80;;;20.80;;
3050;SDS011;1535;51.098;6.414;2024-01-15T05:18:04;22.10;;;21.10;;
3050;SDS011;1535;51.098;6.414;2024-01-15T05:20:31;21.20;;;20.20;;
3050;SDS011;1535;51.098;6.414;2024-01-15T05:22:59;20.90;;;19.93;;
3050;SDS011;1535;51.098;6.414;2024-01-15T05:25:26;21.60;;;20.60;;
3050;SDS011;1535;51.098;6.414;2024-01-15T05:27:53;21.40;;;20.40;;
3050;SDS011;1535;51.098;6.414;2024-01-15T05:30:20;21.37;;;20.37;;
3050;SDS011;1535;51.098;6.414;2024-01-15T05:32:49;21.60;;;20.60;;
3050;SDS011;1535;51.098;6.414;2024-01-15T05:35:16;20.80;;;19.80;;
3050;SDS011;1535;51.098;6.414;2024-01-15T05:37:43;21.40;;;20.40;;
3050;SDS011;1535;51.098;6.414;2024-01-15T05:40:11;21.10;;;20.10;;
3050;SDS011;1535;51.098;6.414;2024-01-15T05:42:39;21.10;;;20.10;;
3050;SDS011;1535;51.098;6.414;2024-01-15T05:45:06;20.23;;;19.33;;
3050;SDS011;1535;51.098;6.414;2024-01-15T05:47:33;20.80;;;19.80;;
3050;SDS011;1535;51.098;6.414;2024-01-15T05:50:02;20.30;;;19.40;;
3050;SDS011;1535;51.098;6.414;2024-01-15T05:52:29;20.10;;;19.20;;
3050;SDS011;1535;51.098;6.414;2024-01-15T05:54:57;19.90;;;19.00;;
3050;SDS011;1535;51.098;6.414;2024-01-15T05:57:24;20.10;;;19.20;;
3050;SDS011;1535;51.098;6.414;2024-01-15T05:59:51;20.40;;;19.50;;
3050;SDS011;1535;51.098;6.414;2024-01-15T06:02:18;20.57;;;19.57;;
3050;SDS011;1535;51.098;6.414;2024-01-15T06:04:45;21.30;;;20.30;;
3050;SDS011;1535;51.098;6.414;2024-01-15T06:07:13;21.20;;;20.20;;
3050;SDS011;1535;51.098;6.414;2024-01-15T06:09:40;22.97;;;21.87;;
3050;SDS011;1535;51.098;6.414;2024-01-15T06:12:07;22.30;;;21.20;;
3050;SDS011;1535;51.098;6.414;2024-01-15T06:14:34;21.90;;;20.90;;
3050;SDS011;1535;51.098;6.414;2024-01-15T06:17:01;22.20;;;21.13;;
3050;SDS011;1535;51.098;6.414;2024-01-15T06:19:29;21.80;;;20.80;;
3050;SDS011;1535;51.098;6.414;2024-01-15T06:21:56;22.30;;;21.30;;
3050;SDS011;1535;51.098;6.414;2024-01-15T06:24:25;21.00;;;20.10;;
3050;SDS011;1535;51.098;6.414;2024-01-15T06:26:51;21.60;;;20.60;;
3050;SDS011;1535;51.098;6.414;2024-01-15T06:29:18;21.23;;;20.23;;
3050;SDS011;1535;51.098;6.414;2024-01-15T06:31:45;21.53;;;20.53;;
3050;SDS011;1535;51.098;6.414;2024-01-15T06:34:12;21.60;;;20.60;;
3050;SDS011;1535;51.098;6.414;2024-01-15T06:36:39;21.83;;;20.83;;
3050;SDS011;1535;51.098;6.414;2024-01-15T06:39:06;22.27;;;21.17;;
3050;SDS011;1535;51.098;6.414;2024-01-15T06:41:34;22.40;;;21.40;;
3050;SDS011;1535;51.098;6.414;2024-01-15T06:44:06;22.17;;;21.17;;
3050;SDS011;1535;51.098;6.414;2024-01-15T06:46:34;22.80;;;21.70;;
3050;SDS011;1535;51.098;6.414;2024-01-15T06:49:01;23.20;;;22.10;;
3050;SDS011;1535;51.098;6.414;2024-01-15T06:51:28;21.80;;;20.80;;
3050;SDS011;1535;51.098;6.414;2024-01-15T06:53:55;22.90;;;21.80;;
3050;SDS011;1535;51.098;6.414;2024-01-15T06:56:22;23.10;;;22.00;;
3050;SDS011;1535;51.098;6.414;2024-01-15T06:58:50;22.70;;;21.60;;
3050;SDS011;1535;51.098;6.414;2024-01-15T07:01:17;22.80;;;21.70;;
3050;SDS011;1535;51.098;6.414;2024-01-15T07:03:44;23.90;;;22.70;;
3050;SDS011;1535;51.098;6.414;2024-01-15T07:06:11;23.13;;;21.93;;
3050;SDS011;1535;51.098;6.414;2024-01-15T07:08:39;23.50;;;22.30;;
3050;SDS011;1535;51.098;6.414;2024-01-15T07:11:06;22.60;;;21.50;;
3050;SDS011;1535;51.098;6.414;2024-01-15T07:13:34;22.70;;;21.60;;
3050;SDS011;1535;51.098;6.414;2024-01-15T07:16:03;23.03;;;21.93;;
3050;SDS011;1535;51.098;6.414;2024-01-15T07:18:30;22.70;;;21.60;;
3050;SDS011;1535;51.098;6.414;2024-01-15T07:20:57;23.13;;;22.00;;
3050;SDS011;1535;51.098;6.414;2024-01-15T07:23:26;22.20;;;21.10;;
3050;SDS011;1535;51.098;6.414;2024-01-15T07:25:53;23.30;;;22.10;;
3050;SDS011;1535;51.098;6.414;2024-01-15T07:28:20;23.20;;;22.00;;
3050;SDS011;1535;51.098;6.414;2024-01-15T07:30:46;23.30;;;22.10;;
3050;SDS011;1535;51.098;6.414;2024-01-15T07:33:14;23.30;;;22.10;;
3050;SDS011;1535;51.098;6.414;2024-01-15T07:35:41;22.60;;;21.50;;
3050;SDS011;1535;51.098;6.414;2024-01-15T07:38:08;22.10;;;21.00;;
3050;SDS011;1535;51.098;6.414;2024-01-15T07:40:36;22.80;;;21.70;;
3050;SDS011;1535;51.098;6.414;2024-01-15T07:43:04;22.00;;;20.90;;
3050;SDS011;1535;51.098;6.414;2024-01-15T07:45:30;22.13;;;21.03;;
3050;SDS011;1535;51.098;6.414;2024-01-15T07:47:57;22.00;;;20.90;;
3050;SDS011;1535;51.098;6.414;2024-01-15T07:50:25;22.10;;;21.00;;
3050;SDS011;1535;51.098;6.414;2024-01-15T07:52:52;22.90;;;21.70;;
3050;SDS011;1535;51.098;6.414;2024-01-15T07:55:19;22.80;;;21.70;;
3050;SDS011;1535;51.098;6.414;2024-01-15T07:57:46;22.87;;;21.77;;
3050;SDS011;1535;51.098;6.414;2024-01-15T08:00:14;22.60;;;21.50;;
3050;SDS011;1535;51.098;6.414;2024-01-15T08:02:42;23.63;;;22.43;;
3050;SDS011;1535;51.098;6.414;2024-01-15T08:05:08;24.40;;;23.00;;
3050;SDS011;1535;51.098;6.414;2024-01-15T08:07:36;25.10;;;23.70;;
3050;SDS011;1535;51.098;6.414;2024-01-15T08:10:03;25.33;;;23.93;;
3050;SDS011;1535;51.098;6.414;2024-01-15T08:12:30;25.20;;;23.80;;
3050;SDS011;1535;51.098;6.414;2024-01-15T08:14:57;25.10;;;23.70;;
3050;SDS011;1535;51.098;6.414;2024-01-15T08:17:24;24.23;;;22.93;;
3050;SDS011;1535;51.098;6.414;2024-01-15T08:19:53;23.87;;;22.57;;
3050;SDS011;1535;51.098;6.414;2024-01-15T08:22:20;23.87;;;22.57;;
3050;SDS011;1535;51.098;6.414;2024-01-15T08:24:48;23.07;;;21.87;;
3050;SDS011;1535;51.098;6.414;2024-01-15T08:27:15;23.67;;;22.47;;
3050;SDS011;1535;51.098;6.414;2024-01-15T08:29:42;24.27;;;23.00;;
3050;SDS011;1535;51.098;6.414;2024-01-15T08:32:10;23.70;;;22.50;;
3050;SDS011;1535;51.098;6.414;2024-01-15T08:34:39;23.77;;;22.47;;
3050;SDS011;1535;51.098;6.414;2024-01-15T08:37:07;24.60;;;23.30;;
3050;SDS011;1535;51.098;6.414;2024-01-15T08:39:34;23.77;;;22.57;;
3050;SDS011;1535;51.098;6.414;2024-01-15T08:42:04;24.03;;;22.83;;
3050;SDS011;1535;51.098;6.414;2024-01-15T08:44:31;23.53;;;22.33;;
3050;SDS011;1535;51.098;6.414;2024-01-15T08:46:58;24.17;;;22.87;;
3050;SDS011;1535;51.098;6.414;2024-01-15T08:49:26;23.97;;;22.77;;
3050;SDS011;1535;51.098;6.414;2024-01-15T08:51:52;24.87;;;23.57;;
3050;SDS011;1535;51.098;6.414;2024-01-15T08:54:19;23.57;;;22.37;;
3050;SDS011;1535;51.098;6.414;2024-01-15T08:56:46;24.20;;;23.00;;
3050;SDS011;1535;51.098;6.414;2024-01-15T08:59:14;24.10;;;22.90;;
3050;SDS011;1535;51.098;6.414;2024-01-15T09:01:41;23.20;;;22.00;;
3050;SDS011;1535;51.098;6.414;2024-01-15T09:04:09;23.67;;;22.47;;
3050;SDS011;1535;51.098;6.414;2024-01-15T09:06:36;24.47;;;23.13;;
3050;SDS011;1535;51.098;6.414;2024-01-15T09:09:02;26.33;;;24.63;;
3050;SDS011;1535;51.098;6.414;2024-01-15T09:11:29;27.33;;;25.53;;
3050;SDS011;1535;51.098;6.414;2024-01-15T09:13:56;25.97;;;24.27;;
3050;SDS011;1535;51.098;6.414;2024-01-15T09:16:25;26.30;;;24.60;;
3050;SDS011;1535;51.098;6.414;2024-01-15T09:18:52;27.77;;;25.97;;
3050;SDS011;1535;51.098;6.414;2024-01-15T09:21:21;27.23;;;25.43;;
3050;SDS011;1535;51.098;6.414;2024-01-15T09:23:49;28.30;;;26.40;;
3050;SDS011;1535;51.098;6.414;2024-01-15T09:26:16;29.00;;;27.10;;
3050;SDS011;1535;51.098;6.414;2024-01-15T09:28:43;29.27;;;27.27;;
3050;SDS011;1535;51.098;6.414;2024-01-15T09:31:09;28.97;;;26.97;;
3050;SDS011;1535;51.098;6.414;2024-01-15T09:33:38;28.53;;;26.63;;
3050;SDS011;1535;51.098;6.414;2024-01-15T09:36:05;29.93;;;27.83;;
3050;SDS011;1535;51.098;6.414;2024-01-15T09:38:33;30.40;;;28.30;;
3050;SDS011;1535;51.098;6.414;2024-01-15T09:40:59;30.10;;;28.00;;
3050;SDS011;1535;51.098;6.414;2024-01-15T09:43:26;30.17;;;28.07;;
3050;SDS011;1535;51.098;6.414;2024-01-15T09:45:53;30.47;;;28.37;;
3050;SDS011;1535;51.098;6.414;2024-01-15T09:48:20;30.57;;;28.37;;
3050;SDS011;1535;51.098;6.414;2024-01-15T09:50:49;30.70;;;28.50;;
3050;SDS011;1535;51.098;6.414;2024-01-15T09:53:16;30.47;;;28.27;;
3050;SDS011;1535;51.098;6.414;2024-01-15T09:55:46;29.80;;;27.60;;
3050;SDS011;1535;51.098;6.414;2024-01-15T09:58:16;30.27;;;28.17;;
3050;SDS011;1535;51.098;6.414;2024-01-15T10:00:43;30.77;;;28.57;;
3050;SDS011;1535;51.098;6.414;2024-01-15T10:03:11;30.97;;;28.77;;
3050;SDS011;1535;51.098;6.414;2024-01-15T10:05:38;31.50;;;29.20;;
3050;SDS011;1535;51.098;6.414;2024-01-15T10:08:06;30.57;;;28.37;;
3050;SDS011;1535;51.098;6.414;2024-01-15T10:10:34;30.10;;;27.90;;
3050;SDS011;1535;51.098;6.414;2024-01-15T10:13:03;31.70;;;29.50;;
3050;SDS011;1535;51.098;6.414;2024-01-15T10:15:33;32.80;;;30.50;;
3050;SDS011;1535;51.098;6.414;2024-01-15T10:18:01;30.40;;;28.30;;
3050;SDS011;1535;51.098;6.414;2024-01-15T10:20:28;26.63;;;24.93;;
3050;SDS011;1535;51.098;6.414;2024-01-15T10:22:58;27.80;;;25.90;;
3050;SDS011;1535;51.098;6.414;2024-01-15T10:25:26;28.27;;;26.37;;
3050;SDS011;1535;51.098;6.414;2024-01-15T10:27:59;30.43;;;28.33;;
3050;SDS011;1535;51.098;6.414;2024-01-15T10:30:27;30.80;;;28.70;;
3050;SDS011;1535;51.098;6.414;2024-01-15T10:32:57;31.10;;;29.00;;
3050;SDS011;1535;51.098;6.414;2024-01-15T10:35:26;31.37;;;29.17;;
3050;SDS011;1535;51.098;6.414;2024-01-15T10:37:54;32.60;;;30.40;;
3050;SDS011;1535;51.098;6.414;2024-01-15T10:40:21;34.90;;;32.50;;
3050;SDS011;1535;51.098;6.414;2024-01-15T10:42:50;32.33;;;30.03;;
3050;SDS011;1535;51.098;6.414;2024-01-15T10:45:17;31.10;;;28.90;;
3050;SDS011;1535;51.098;6.414;2024-01-15T10:47:44;32.83;;;30.53;;
3050;SDS011;1535;51.098;6.414;2024-01-15T10:50:12;35.07;;;32.57;;
3050;SDS011;1535;51.098;6.414;2024-01-15T10:52:39;34.63;;;32.13;;
3050;SDS011;1535;51.098;6.414;2024-01-15T10:55:08;34.60;;;32.20;;
3050;SDS011;1535;51.098;6.414;2024-01-15T10:57:36;35.30;;;32.80;;
3050;SDS011;1535;51.098;6.414;2024-01-15T11:00:06;37.80;;;35.10;;
3050;SDS011;1535;51.098;6.414;2024-01-15T11:02:37;33.60;;;31.20;;
3050;SDS011;1535;51.098;6.414;2024-01-15T11:05:05;34.37;;;31.97;;
3050;SDS011;1535;51.098;6.414;2024-01-15T11:07:32;36.17;;;33.67;;
3050;SDS011;1535;51.098;6.414;2024-01-15T11:09:59;36.10;;;33.70;;
3050;SDS011;1535;51.098;6.414;2024-01-15T11:12:29;35.10;;;32.80;;
3050;SDS011;1535;51.098;6.414;2024-01-15T11:15:01;33.43;;;31.23;;
3050;SDS011;1535;51.098;6.414;2024-01-15T11:17:31;31.60;;;29.60;;
3050;SDS011;1535;51.098;6.414;2024-01-15T11:20:25;32.27;;;30.37;;
3050;SDS011;1535;51.098;6.414;2024-01-15T11:22:52;31.90;;;30.00;;
3050;SDS011;1535;51.098;6.414;2024-01-15T11:25:22;30.50;;;28.70;;
3050;SDS011;1535;51.098;6.414;2024-01-15T11:27:49;28.63;;;26.93;;
3050;SDS011;1535;51.098;6.414;2024-01-15T11:30:17;27.77;;;26.17;;
3050;SDS011;1535;51.098;6.414;2024-01-15T11:32:47;28.30;;;26.70;;
3050;SDS011;1535;51.098;6.414;2024-01-15T11:35:14;27.30;;;25.80;;
3050;SDS011;1535;51.098;6.414;2024-01-15T11:37:57;27.20;;;25.70;;
3050;SDS011;1535;51.098;6.414;2024-01-15T11:40:36;26.17;;;24.77;;
3050;SDS011;1535;51.098;6.414;2024-01-15T11:43:04;26.77;;;25.37;;
3050;SDS011;1535;51.098;6.414;2024-01-15T11:45:32;25.90;;;24.50;;
3050;SDS011;1535;51.098;6.414;2024-01-15T11:48:13;24.67;;;23.27;;
3050;SDS011;1535;51.098;6.414;2024-01-15T11:50:41;24.47;;;23.07;;
3050;SDS011;1535;51.098;6.414;2024-01-15T11:53:10;24.10;;;22.70;;
3050;SDS011;1535;51.098;6.414;2024-01-15T11:55:44;23.20;;;21.90;;
3050;SDS011;1535;51.098;6.414;2024-01-15T11:58:14;22.57;;;21.37;;
3050;SDS011;1535;51.098;6.414;2024-01-15T12:00:42;22.70;;;21.40;;
3050;SDS011;1535;51.098;6.414;2024-01-15T12:03:11;22.50;;;21.20;;
3050;SDS011;1535;51.098;6.414;2024-01-15T12:05:38;21.60;;;20.40;;
3050;SDS011;1535;51.098;6.414;2024-01-15T12:08:06;22.70;;;21.50;;
3050;SDS011;1535;51.098;6.414;2024-01-15T12:10:36;21.13;;;20.03;;
3050;SDS011;1535;51.098;6.414;2024-01-15T12:13:07;20.13;;;19.13;;
3050;SDS011;1535;51.098;6.414;2024-01-15T12:15:36;21.10;;;20.00;;
3050;SDS011;1535;51.098;6.414;2024-01-15T12:18:07;20.30;;;19.30;;
3050;SDS011;1535;51.098;6.414;2024-01-15T12:20:36;20.40;;;19.40;;
3050;SDS011;1535;51.098;6.414;2024-01-15T12:23:03;19.20;;;18.20;;
3050;SDS011;1535;51.098;6.414;2024-01-15T12:25:31;19.20;;;18.20;;
3050;SDS011;1535;51.098;6.414;2024-01-15T12:27:59;18.77;;;17.87;;
3050;SDS011;1535;51.098;6.414;2024-01-15T12:30:26;19.00;;;18.03;;
3050;SDS011;1535;51.098;6.414;2024-01-15T12:32:56;19.00;;;18.03;;
3050;SDS011;1535;51.098;6.414;2024-01-15T12:35:24;18.50;;;17.60;;
3050;SDS011;1535;51.098;6.414;2024-01-15T12:37:54;18.87;;;17.97;;
3050;SDS011;1535;51.098;6.414;2024-01-15T12:40:21;18.43;;;17.53;;
3050;SDS011;1535;51.098;6.414;2024-01-15T12:42:48;17.47;;;16.67;;
3050;SDS011;1535;51.098;6.414;2024-01-15T12:45:15;18.60;;;17.70;;
3050;SDS011;1535;51.098;6.414;2024-01-15T12:47:43;18.00;;;17.10;;
3050;SDS011;1535;51.098;6.414;2024-01-15T12:50:11;18.60;;;17.70;;
3050;SDS011;1535;51.098;6.414;2024-01-15T12:52:39;18.60;;;17.70;;
3050;SDS011;1535;51.098;6.414;2024-01-15T12:55:10;19.60;;;18.60;;
3050;SDS011;1535;51.098;6.414;2024-01-15T12:57:37;20.00;;;19.00;;
3050;SDS011;1535;51.098;6.414;2024-01-15T13:00:04;19.90;;;18.80;;
3050;SDS011;1535;51.098;6.414;2024-01-15T13:02:37;20.80;;;19.60;;
3050;SDS011;1535;51.098;6.414;2024-01-15T13:05:04;20.57;;;19.47;;
3050;SDS011;1535;51.098;6.414;2024-01-15T13:07:32;21.00;;;19.90;;
3050;SDS011;1535;51.098;6.414;2024-01-15T13:09:59;20.47;;;19.37;;
3050;SDS011;1535;51.098;6.414;2024-01-15T13:12:27;20.27;;;19.27;;
3050;SDS011;1535;51.098;6.414;2024-01-15T13:14:54;19.90;;;18.90;;
3050;SDS011;1535;51.098;6.414;2024-01-15T13:17:21;19.50;;;18.50;;
3050;SDS011;1535;51.098;6.414;2024-01-15T13:19:48;19.90;;;18.90;;
3050;SDS011;1535;51.098;6.414;2024-01-15T13:22:15;19.97;;;18.97;;
3050;SDS011;1535;51.098;6.414;2024-01-15T13:24:42;20.07;;;19.07;;
3050;SDS011;1535;51.098;6.414;2024-01-15T13:27:09;20.30;;;19.20;;
3050;SDS011;1535;51.098;6.414;2024-01-15T13:29:38;18.73;;;17.83;;
3050;SDS011;1535;51.098;6.414;2024-01-15T13:32:04;19.80;;;18.80;;
3050;SDS011;1535;51.098;6.414;2024-01-15T13:34:32;19.27;;;18.27;;
3050;SDS011;1535;51.098;6.414;2024-01-15T13:37:00;19.57;;;18.57;;
3050;SDS011;1535;51.098;6.414;2024-01-15T13:39:26;19.40;;;18.40;;
3050;SDS011;1535;51.098;6.414;2024-01-15T13:41:54;20.33;;;19.23;;
3050;SDS011;1535;51.098;6.414;2024-01-15T13:44:21;20.10;;;19.10;;
3050;SDS011;1535;51.098;6.414;2024-01-15T13:46:50;20.43;;;19.33;;
3050;SDS011;1535;51.098;6.414;2024-01-15T13:49:17;20.80;;;19.70;;
3050;SDS011;1535;51.098;6.414;2024-01-15T13:51:45;19.93;;;18.93;;
3050;SDS011;1535;51.098;6.414;2024-01-15T13:54:13;20.57;;;19.50;;
3050;SDS011;1535;51.098;6.414;2024-01-15T13:56:40;20.27;;;19.27;;
3050;SDS011;1535;51.098;6.414;2024-01-15T14:02:19;20.80;;;19.80;;
3050;SDS011;1535;51.098;6.414;2024-01-15T14:04:46;20.63;;;19.63;;
3050;SDS011;1535;51.098;6.414;2024-01-15T14:07:13;20.07;;;19.17;;
3050;SDS011;1535;51.098;6.414;2024-01-15T14:09:40;19.90;;;19.00;;
3050;SDS011;1535;51.098;6.414;2024-01-15T14:12:07;20.43;;;19.47;;
3050;SDS011;1535;51.098;6.414;2024-01-15T14:14:34;20.10;;;19.20;;
3050;SDS011;1535;51.098;6.414;2024-01-15T14:17:01;20.60;;;19.60;;
3050;SDS011;1535;51.098;6.414;2024-01-15T14:19:29;20.27;;;19.27;;
3050;SDS011;1535;51.098;6.414;2024-01-15T14:21:56;20.53;;;19.53;;
3050;SDS011;1535;51.098;6.414;2024-01-15T14:24:23;20.50;;;19.50;;
3050;SDS011;1535;51.098;6.414;2024-01-15T14:26:53;21.47;;;20.47;;
3050;SDS011;1535;51.098;6.414;2024-01-15T14:29:20;21.47;;;20.37;;
3050;SDS011;1535;51.098;6.414;2024-01-15T14:31:50;21.27;;;20.27;;
3050;SDS011;1535;51.098;6.414;2024-01-15T14:34:17;21.60;;;20.50;;
3050;SDS011;1535;51.098;6.414;2024-01-15T14:36:45;21.47;;;20.37;;
3050;SDS011;1535;51.098;6.414;2024-01-15T14:39:14;22.20;;;21.10;;
3050;SDS011;1535;51.098;6.414;2024-01-15T14:41:41;20.80;;;19.80;;
3050;SDS011;1535;51.098;6.414;2024-01-15T14:44:08;20.83;;;19.83;;
3050;SDS011;1535;51.098;6.414;2024-01-15T14:46:37;20.93;;;19.93;;
3050;SDS011;1535;51.098;6.414;2024-01-15T14:49:04;21.50;;;20.50;;
3050;SDS011;1535;51.098;6.414;2024-01-15T14:51:31;21.43;;;20.43;;
3050;SDS011;1535;51.098;6.414;2024-01-15T14:54:02;20.93;;;19.93;;